createdAt,value
2023-02-26T00:01:25.743Z,18.27
2023-02-26T00:03:54.521Z,18.50
2023-02-26T00:06:21.549Z,18.64
2023-02-26T00:08:48.456Z,18.14
2023-02-26T00:11:16.143Z,18.04
2023-02-26T00:13:44.516Z,18.54
2023-02-26T00:16:34.731Z,19.01
2023-02-26T00:19:04.642Z,18.84
2023-02-26T00:21:32.429Z,18.78
2023-02-26T00:24:00.555Z,18.33
2023-02-26T00:26:30.301Z,18.44
2023-02-26T00:28:57.666Z,18.73
2023-02-26T00:31:24.976Z,18.81
2023-02-26T00:33:56.584Z,19.26
2023-02-26T00:36:25.388Z,18.30
2023-02-26T00:39:19.905Z,18.34
2023-02-26T00:41:48.118Z,18.96
2023-02-26T00:44:15.147Z,19.09
2023-02-26T00:46:49.820Z,18.42
2023-02-26T00:49:29.321Z,18.64
2023-02-26T00:52:01.799Z,19.10
2023-02-26T00:54:30.733Z,19.25
2023-02-26T00:56:59.427Z,19.08
2023-02-26T00:59:26.651Z,18.80
2023-02-26T01:01:54.421Z,18.41
2023-02-26T01:04:24.033Z,18.73
2023-02-26T01:06:54.644Z,18.68
2023-02-26T01:09:28.843Z,18.93
2023-02-26T01:12:01.060Z,19.09
2023-02-26T01:14:28.999Z,18.75
2023-02-26T01:17:33.944Z,18.81
2023-02-26T01:20:20.766Z,18.86
2023-02-26T01:23:12.338Z,18.56
2023-02-26T01:25:50.207Z,18.82
2023-02-26T01:28:17.802Z,18.93
2023-02-26T01:30:46.266Z,19.08
2023-02-26T01:33:30.029Z,18.88
2023-02-26T01:36:06.970Z,18.62
2023-02-26T01:38:43.342Z,18.99
2023-02-26T01:41:37.386Z,19.16
2023-02-26T01:44:08.179Z,18.89
2023-02-26T01:46:43.660Z,18.63
2023-02-26T01:49:15.918Z,18.55
2023-02-26T01:51:56.772Z,18.67
2023-02-26T01:54:28.254Z,18.77
2023-02-26T01:57:21.501Z,19.13
2023-02-26T01:59:51.544Z,18.75
2023-02-26T02:02:23.563Z,18.71
2023-02-26T02:04:51.319Z,18.15
2023-02-26T02:07:19.188Z,18.83
2023-02-26T02:09:47.662Z,18.94
2023-02-26T02:12:29.267Z,18.67
2023-02-26T02:15:11.896Z,18.80
2023-02-26T02:18:10.491Z,18.88
2023-02-26T02:20:52.442Z,18.51
2023-02-26T02:23:45.117Z,18.46
2023-02-26T02:26:44.354Z,18.71
2023-02-26T02:29:32.122Z,18.65
2023-02-26T02:32:10.964Z,18.24
2023-02-26T02:34:46.939Z,18.56
2023-02-26T02:37:35.631Z,18.65
2023-02-26T02:40:25.626Z,18.82
2023-02-26T02:42:55.792Z,19.02
2023-02-26T02:45:58.480Z,18.76
2023-02-26T02:48:33.172Z,19.08
2023-02-26T02:51:26.243Z,18.92
2023-02-26T02:54:00.174Z,18.78
2023-02-26T02:56:34.862Z,18.77
2023-02-26T02:59:10.966Z,18.38
2023-02-26T03:01:40.434Z,18.56
2023-02-26T03:04:15.118Z,18.52
2023-02-26T03:06:42.983Z,19.03
2023-02-26T03:09:11.134Z,18.56
2023-02-26T03:11:41.523Z,17.84
2023-02-26T03:14:10.313Z,17.96
2023-02-26T03:17:06.405Z,18.81
2023-02-26T03:19:48.784Z,18.96
2023-02-26T03:22:34.969Z,18.81
2023-02-26T03:25:02.166Z,18.63
2023-02-26T03:27:38.081Z,18.64
2023-02-26T03:30:11.439Z,18.68
2023-02-26T03:33:05.946Z,19.23
2023-02-26T03:35:44.462Z,18.69
2023-02-26T03:38:17.668Z,18.86
2023-02-26T03:40:51.061Z,18.86
2023-02-26T03:43:45.680Z,18.61
2023-02-26T03:46:18.172Z,18.58
2023-02-26T03:48:48.909Z,18.63
2023-02-26T03:51:15.905Z,18.82
2023-02-26T03:54:20.139Z,18.91
2023-02-26T03:56:54.305Z,18.84
2023-02-26T03:59:39.749Z,18.94
2023-02-26T04:02:39.021Z,19.02
2023-02-26T04:05:21.359Z,18.97
2023-02-26T04:07:49.747Z,18.78
2023-02-26T04:10:21.621Z,18.82
2023-02-26T04:12:50.600Z,18.18
2023-02-26T04:15:17.324Z,18.61
2023-02-26T04:17:44.081Z,18.44
2023-02-26T04:20:11.780Z,18.16
2023-02-26T04:22:39.426Z,18.48
2023-02-26T04:25:06.626Z,18.51
2023-02-26T04:27:33.708Z,18.63
2023-02-26T04:30:01.490Z,18.75
2023-02-26T04:32:29.911Z,18.83
2023-02-26T04:34:57.715Z,18.78
2023-02-26T04:37:24.649Z,18.62
2023-02-26T04:39:51.716Z,18.71
2023-02-26T04:42:18.669Z,18.49
2023-02-26T04:44:45.523Z,18.50
2023-02-26T04:47:13.631Z,17.60
2023-02-26T04:49:40.709Z,18.20
2023-02-26T04:52:08.008Z,18.25
2023-02-26T04:54:35.003Z,18.29
2023-02-26T04:57:01.901Z,18.43
2023-02-26T04:59:28.669Z,18.36
2023-02-26T05:01:57.115Z,18.53
2023-02-26T05:04:23.887Z,18.26
2023-02-26T05:06:54.218Z,17.93
2023-02-26T05:09:21.347Z,18.38
2023-02-26T05:11:48.983Z,18.34
2023-02-26T05:14:17.354Z,18.56
2023-02-26T05:16:47.442Z,18.30
2023-02-26T05:19:14.207Z,18.47
2023-02-26T05:21:41.073Z,18.28
2023-02-26T05:24:08.172Z,18.45
2023-02-26T05:26:34.986Z,18.34
2023-02-26T05:29:02.458Z,18.23
2023-02-26T05:31:30.009Z,17.88
2023-02-26T05:33:57.050Z,18.08
2023-02-26T05:36:24.062Z,18.24
2023-02-26T05:38:51.159Z,18.27
2023-02-26T05:41:17.907Z,18.12
2023-02-26T05:43:44.689Z,18.30
2023-02-26T05:46:11.993Z,18.32
2023-02-26T05:48:38.706Z,18.31
2023-02-26T05:51:06.153Z,18.22
2023-02-26T05:53:32.927Z,18.28
2023-02-26T05:55:59.811Z,18.36
2023-02-26T05:58:26.446Z,18.45
2023-02-26T06:00:53.382Z,18.22
2023-02-26T06:03:20.152Z,18.30
2023-02-26T06:05:47.150Z,18.28
2023-02-26T06:08:15.604Z,18.32
2023-02-26T06:10:42.809Z,18.69
2023-02-26T06:13:09.663Z,18.76
2023-02-26T06:15:36.446Z,18.91
2023-02-26T06:18:03.298Z,18.77
2023-02-26T06:20:30.328Z,18.94
2023-02-26T06:22:57.131Z,18.93
2023-02-26T06:25:23.894Z,19.07
2023-02-26T06:27:50.847Z,18.88
2023-02-26T06:30:18.334Z,19.05
2023-02-26T06:32:45.325Z,18.75
2023-02-26T06:35:12.054Z,19.18
2023-02-26T06:37:38.848Z,18.76
2023-02-26T06:40:06.380Z,18.74
2023-02-26T06:42:33.084Z,19.14
2023-02-26T06:44:59.791Z,19.08
2023-02-26T06:47:26.628Z,19.66
2023-02-26T06:49:53.343Z,20.09
2023-02-26T06:52:20.208Z,20.16
2023-02-26T06:54:46.928Z,19.20
2023-02-26T06:57:13.817Z,19.59
2023-02-26T06:59:40.510Z,19.82
2023-02-26T07:02:07.348Z,19.50
2023-02-26T07:04:34.093Z,19.53
2023-02-26T07:07:00.863Z,20.12
2023-02-26T07:09:27.580Z,19.77
2023-02-26T07:11:54.318Z,20.11
2023-02-26T07:14:21.463Z,19.75
2023-02-26T07:16:48.288Z,20.26
2023-02-26T07:19:15.266Z,20.08
2023-02-26T07:21:43.977Z,20.14
2023-02-26T07:24:10.719Z,20.23
2023-02-26T07:26:39.307Z,20.74
2023-02-26T07:29:06.219Z,20.39
2023-02-26T07:31:33.155Z,20.12
2023-02-26T07:33:59.940Z,19.53
2023-02-26T07:36:27.193Z,19.87
2023-02-26T07:38:54.192Z,20.17
2023-02-26T07:41:21.143Z,19.87
2023-02-26T07:43:47.889Z,20.22
2023-02-26T07:46:14.708Z,20.03
2023-02-26T07:48:41.527Z,19.52
2023-02-26T07:51:08.547Z,20.43
2023-02-26T07:53:35.485Z,20.43
2023-02-26T07:56:02.431Z,19.89
2023-02-26T07:58:30.114Z,20.46
2023-02-26T08:00:58.596Z,20.88
2023-02-26T08:03:25.341Z,19.56
2023-02-26T08:05:52.115Z,20.25
2023-02-26T08:08:18.907Z,20.60
2023-02-26T08:10:45.571Z,20.86
2023-02-26T08:13:12.281Z,21.20
2023-02-26T08:15:39.165Z,20.89
2023-02-26T08:18:05.935Z,21.51
2023-02-26T08:20:32.658Z,20.93
2023-02-26T08:22:59.417Z,20.54
2023-02-26T08:25:26.443Z,20.98
2023-02-26T08:27:53.487Z,20.60
2023-02-26T08:30:20.689Z,20.47
2023-02-26T08:32:47.471Z,20.67
2023-02-26T08:35:14.317Z,21.33
2023-02-26T08:37:41.061Z,21.52
2023-02-26T08:40:13.491Z,21.63
2023-02-26T08:42:42.668Z,20.63
2023-02-26T08:45:10.052Z,20.99
2023-02-26T08:47:53.989Z,20.70
2023-02-26T08:50:24.887Z,21.29
2023-02-26T08:52:53.183Z,21.77
2023-02-26T08:55:21.729Z,21.84
2023-02-26T08:57:48.701Z,21.65
2023-02-26T09:00:19.398Z,22.24
2023-02-26T09:02:46.387Z,22.15
2023-02-26T09:05:15.389Z,22.52
2023-02-26T09:07:43.743Z,22.71
2023-02-26T09:10:11.655Z,21.87
2023-02-26T09:12:38.760Z,22.48
2023-02-26T09:15:06.884Z,22.33
2023-02-26T09:17:34.193Z,22.71
2023-02-26T09:20:01.409Z,23.23
2023-02-26T09:22:28.416Z,23.21
2023-02-26T09:24:55.200Z,22.01
2023-02-26T09:27:22.336Z,23.14
2023-02-26T09:29:49.125Z,22.35
2023-02-26T09:32:15.988Z,21.47
2023-02-26T09:34:42.848Z,22.13
2023-02-26T09:37:09.999Z,22.12
2023-02-26T09:39:37.026Z,22.92
2023-02-26T09:42:49.375Z,22.75
2023-02-26T09:45:27.210Z,23.82
2023-02-26T09:47:55.109Z,23.68
2023-02-26T09:50:26.479Z,22.68
2023-02-26T09:53:20.470Z,22.82
2023-02-26T09:55:50.686Z,22.95
2023-02-26T09:58:26.514Z,22.77
2023-02-26T10:01:08.208Z,22.82
2023-02-26T10:03:53.179Z,22.69
2023-02-26T10:06:59.310Z,23.00
2023-02-26T10:09:47.146Z,22.83
2023-02-26T10:12:19.317Z,22.60
2023-02-26T10:14:55.099Z,23.34
2023-02-26T10:17:31.638Z,23.62
2023-02-26T10:20:06.285Z,24.64
2023-02-26T10:22:40.022Z,24.35
2023-02-26T10:25:10.812Z,23.81
2023-02-26T10:27:45.015Z,23.43
2023-02-26T10:30:41.863Z,23.79
2023-02-26T10:33:38.753Z,23.04
2023-02-26T10:36:12.766Z,22.90
2023-02-26T10:38:40.517Z,22.84
2023-02-26T10:41:15.829Z,23.09
2023-02-26T10:43:48.010Z,23.22
2023-02-26T10:46:20.464Z,22.99
2023-02-26T10:49:04.149Z,23.05
2023-02-26T10:51:39.034Z,22.95
2023-02-26T10:54:30.359Z,23.04
2023-02-26T10:56:57.114Z,23.22
2023-02-26T10:59:24.390Z,23.27
2023-02-26T11:01:52.687Z,23.89
2023-02-26T11:04:26.178Z,24.22
2023-02-26T11:06:59.475Z,24.38
2023-02-26T11:09:37.863Z,22.37
2023-02-26T11:12:14.790Z,22.78
2023-02-26T11:14:46.961Z,22.29
2023-02-26T11:17:29.654Z,23.37
2023-02-26T11:20:01.036Z,23.26
2023-02-26T11:22:32.310Z,23.38
2023-02-26T11:24:59.739Z,23.44
2023-02-26T11:27:36.938Z,23.74
2023-02-26T11:30:11.970Z,23.82
2023-02-26T11:32:39.596Z,23.30
2023-02-26T11:35:10.340Z,23.53
2023-02-26T11:37:42.129Z,23.30
2023-02-26T11:40:22.213Z,22.38
2023-02-26T11:43:00.606Z,22.93
2023-02-26T11:45:28.514Z,23.10
2023-02-26T11:48:06.463Z,23.47
2023-02-26T11:50:43.612Z,23.27
2023-02-26T11:53:47.544Z,23.41
2023-02-26T11:56:20.570Z,23.55
2023-02-26T11:58:52.895Z,23.57
2023-02-26T12:01:27.204Z,23.93
2023-02-26T12:03:59.222Z,24.15
2023-02-26T12:06:26.008Z,22.97
2023-02-26T12:08:54.087Z,23.32
2023-02-26T12:11:43.861Z,23.01
2023-02-26T12:14:35.788Z,23.89
2023-02-26T12:17:17.371Z,24.12
2023-02-26T12:20:15.428Z,24.46
2023-02-26T12:23:00.941Z,24.37
2023-02-26T12:25:27.811Z,23.36
2023-02-26T12:28:26.744Z,23.81
2023-02-26T12:31:02.675Z,22.72
2023-02-26T12:34:08.155Z,22.88
2023-02-26T12:37:11.959Z,23.09
2023-02-26T12:40:01.215Z,21.96
2023-02-26T12:42:49.219Z,22.50
2023-02-26T12:45:55.812Z,23.05
2023-02-26T12:48:32.794Z,23.54
2023-02-26T12:51:22.354Z,24.05
2023-02-26T12:54:07.467Z,24.22
2023-02-26T12:56:47.500Z,24.75
2023-02-26T12:59:48.299Z,24.57
2023-02-26T13:02:43.110Z,23.55
2023-02-26T13:05:40.320Z,23.78
2023-02-26T13:08:09.599Z,23.85
2023-02-26T13:10:49.162Z,24.02
2023-02-26T13:13:21.424Z,23.86
2023-02-26T13:15:57.120Z,23.21
2023-02-26T13:18:31.198Z,22.98
2023-02-26T13:21:07.462Z,22.83
2023-02-26T13:23:46.368Z,21.95
2023-02-26T13:26:14.700Z,21.87
2023-02-26T13:28:45.762Z,22.20
2023-02-26T13:31:21.723Z,22.65
2023-02-26T13:33:50.749Z,22.93
2023-02-26T13:36:20.774Z,23.69
2023-02-26T13:38:57.776Z,23.98
2023-02-26T13:41:43.954Z,22.98
2023-02-26T13:44:32.083Z,23.34
2023-02-26T13:47:21.038Z,22.94
2023-02-26T13:49:59.610Z,22.22
2023-02-26T13:52:32.241Z,22.66
2023-02-26T13:54:59.638Z,22.81
2023-02-26T13:57:34.746Z,23.12
2023-02-26T14:00:12.727Z,23.31
2023-02-26T14:02:51.078Z,23.80
2023-02-26T14:05:36.140Z,24.16
2023-02-26T14:08:21.018Z,24.13
2023-02-26T14:11:24.860Z,24.30
2023-02-26T14:14:07.239Z,24.17
2023-02-26T14:16:40.939Z,24.23
2023-02-26T14:19:13.973Z,24.42
2023-02-26T14:22:19.632Z,24.10
2023-02-26T14:24:55.246Z,24.00
2023-02-26T14:27:24.042Z,22.77
2023-02-26T14:29:53.733Z,23.57
2023-02-26T14:32:31.421Z,22.83
2023-02-26T14:35:10.335Z,22.73
2023-02-26T14:37:40.088Z,22.89
2023-02-26T14:40:17.998Z,22.92
2023-02-26T14:42:52.272Z,22.99
2023-02-26T14:45:30.654Z,22.68
2023-02-26T14:48:00.747Z,22.84
2023-02-26T14:50:39.549Z,21.92
2023-02-26T14:53:30.696Z,22.11
2023-02-26T14:56:29.705Z,22.04
2023-02-26T14:59:22.731Z,22.41
2023-02-26T15:02:01.286Z,22.85
2023-02-26T15:04:47.305Z,22.61
2023-02-26T15:07:59.037Z,22.73
2023-02-26T15:10:55.107Z,22.63
2023-02-26T15:13:28.826Z,22.82
2023-02-26T15:16:04.537Z,22.74
2023-02-26T15:18:59.815Z,22.64
2023-02-26T15:21:35.139Z,22.80
2023-02-26T15:24:04.112Z,22.66
2023-02-26T15:26:42.990Z,21.90
2023-02-26T15:29:13.636Z,22.24
2023-02-26T15:31:53.342Z,22.37
2023-02-26T15:34:21.718Z,22.46
2023-02-26T15:36:53.498Z,22.17
2023-02-26T15:39:23.861Z,22.45
2023-02-26T15:41:52.690Z,21.51
2023-02-26T15:44:31.248Z,21.28
2023-02-26T15:47:03.508Z,21.20
2023-02-26T15:49:35.756Z,21.98
2023-02-26T15:52:04.480Z,22.09
2023-02-26T15:55:06.049Z,22.23
2023-02-26T15:57:33.021Z,21.92
2023-02-26T16:00:16.573Z,21.65
2023-02-26T16:02:45.796Z,21.72
2023-02-26T16:05:14.765Z,22.03
2023-02-26T16:07:42.044Z,22.15
2023-02-26T16:10:17.842Z,21.71
2023-02-26T16:12:49.214Z,21.76
2023-02-26T16:15:31.670Z,22.11
2023-02-26T16:18:00.519Z,21.71
2023-02-26T16:20:32.085Z,22.05
2023-02-26T16:23:04.075Z,22.22
2023-02-26T16:25:35.699Z,21.87
2023-02-26T16:28:06.028Z,21.83
2023-02-26T16:30:38.788Z,21.62
2023-02-26T16:33:12.111Z,20.84
2023-02-26T16:35:43.970Z,21.18
2023-02-26T16:38:20.997Z,21.18
2023-02-26T16:40:57.632Z,20.83
2023-02-26T16:43:35.386Z,20.91
2023-02-26T16:46:05.385Z,20.68
2023-02-26T16:48:47.686Z,20.15
2023-02-26T16:51:25.938Z,20.09
2023-02-26T16:54:15.365Z,20.66
2023-02-26T16:56:43.220Z,20.30
2023-02-26T16:59:30.445Z,20.06
2023-02-26T17:02:05.581Z,20.22
2023-02-26T17:04:36.088Z,20.29
2023-02-26T17:07:14.626Z,20.42
2023-02-26T17:09:49.394Z,20.68
2023-02-26T17:12:28.509Z,20.23
2023-02-26T17:14:57.835Z,19.77
2023-02-26T17:17:25.762Z,20.14
2023-02-26T17:19:53.103Z,20.58
2023-02-26T17:22:29.037Z,20.66
2023-02-26T17:24:56.137Z,20.66
2023-02-26T17:27:33.935Z,20.60
2023-02-26T17:30:04.349Z,20.57
2023-02-26T17:32:31.849Z,20.33
2023-02-26T17:34:59.395Z,20.32
2023-02-26T17:37:33.411Z,20.20
2023-02-26T17:40:00.612Z,20.45
2023-02-26T17:42:27.421Z,20.34
2023-02-26T17:44:56.765Z,20.00
2023-02-26T17:47:26.794Z,20.22
2023-02-26T17:49:54.289Z,20.38
2023-02-26T17:52:21.197Z,20.27
2023-02-26T17:54:48.059Z,20.25
2023-02-26T17:57:22.884Z,20.07
2023-02-26T17:59:49.833Z,20.03
2023-02-26T18:02:27.297Z,20.31
2023-02-26T18:04:54.657Z,20.17
2023-02-26T18:07:23.528Z,20.03
2023-02-26T18:09:50.484Z,19.99
2023-02-26T18:12:20.680Z,19.84
2023-02-26T18:14:48.168Z,19.84
2023-02-26T18:17:20.716Z,19.70
2023-02-26T18:19:49.513Z,19.47
2023-02-26T18:22:18.897Z,19.46
2023-02-26T18:24:46.412Z,19.31
2023-02-26T18:27:19.484Z,19.59
2023-02-26T18:29:47.023Z,19.30
2023-02-26T18:32:17.070Z,19.35
2023-02-26T18:34:44.564Z,19.32
2023-02-26T18:37:17.851Z,19.25
2023-02-26T18:39:44.947Z,18.30
2023-02-26T18:42:18.781Z,18.91
2023-02-26T18:44:45.589Z,19.17
2023-02-26T18:47:12.653Z,18.41
2023-02-26T18:49:39.374Z,18.84
2023-02-26T18:52:06.148Z,18.76
2023-02-26T18:54:32.926Z,18.95
2023-02-26T18:56:59.570Z,19.04
2023-02-26T18:59:26.404Z,19.23
2023-02-26T19:01:53.466Z,19.00
2023-02-26T19:04:20.232Z,18.98
2023-02-26T19:06:48.085Z,18.89
2023-02-26T19:09:14.950Z,18.94
2023-02-26T19:11:42.604Z,18.89
2023-02-26T19:14:09.481Z,18.78
2023-02-26T19:16:39.230Z,18.72
2023-02-26T19:19:07.071Z,18.76
2023-02-26T19:21:39.273Z,18.44
2023-02-26T19:24:08.969Z,18.41
2023-02-26T19:26:36.542Z,18.45
2023-02-26T19:29:05.912Z,18.45
2023-02-26T19:31:33.246Z,18.41
2023-02-26T19:34:00.142Z,18.55
2023-02-26T19:36:27.648Z,18.47
2023-02-26T19:38:54.366Z,18.46
2023-02-26T19:41:21.087Z,18.61
2023-02-26T19:43:48.075Z,18.60
2023-02-26T19:46:15.837Z,19.04
2023-02-26T19:48:43.258Z,18.77
2023-02-26T19:51:10.108Z,18.60
2023-02-26T19:53:37.248Z,18.30
2023-02-26T19:56:05.602Z,18.47
2023-02-26T19:58:34.513Z,18.47
2023-02-26T20:01:03.096Z,18.48
2023-02-26T20:03:30.674Z,18.70
2023-02-26T20:05:58.204Z,18.48
2023-02-26T20:08:27.764Z,18.14
2023-02-26T20:10:56.788Z,17.34
2023-02-26T20:13:26.890Z,17.47
2023-02-26T20:15:53.757Z,18.14
2023-02-26T20:18:20.651Z,18.15
2023-02-26T20:20:47.824Z,18.34
2023-02-26T20:23:14.561Z,17.52
2023-02-26T20:25:43.414Z,17.33
2023-02-26T20:28:11.003Z,17.69
2023-02-26T20:30:37.690Z,17.89
2023-02-26T20:33:04.839Z,18.06
2023-02-26T20:35:31.685Z,16.54
2023-02-26T20:37:58.493Z,17.26
2023-02-26T20:40:25.221Z,17.60
2023-02-26T20:42:52.531Z,17.72
2023-02-26T20:45:19.407Z,17.62
2023-02-26T20:47:46.155Z,17.96
2023-02-26T20:50:13.018Z,17.49
2023-02-26T20:52:39.896Z,17.26
2023-02-26T20:55:07.092Z,17.41
2023-02-26T20:57:35.410Z,17.76
2023-02-26T21:00:10.269Z,18.12
2023-02-26T21:02:38.637Z,18.05
2023-02-26T21:05:06.300Z,17.75
2023-02-26T21:07:33.542Z,17.72
2023-02-26T21:10:00.291Z,17.96
2023-02-26T21:12:31.469Z,18.05
2023-02-26T21:14:58.220Z,18.03
2023-02-26T21:17:26.485Z,18.12
2023-02-26T21:19:53.446Z,17.83
2023-02-26T21:22:20.917Z,17.88
2023-02-26T21:24:47.861Z,17.91
2023-02-26T21:27:16.782Z,18.05
2023-02-26T21:29:44.098Z,17.90
2023-02-26T21:32:11.436Z,17.76
2023-02-26T21:34:38.342Z,17.65
2023-02-26T21:37:09.391Z,17.72
2023-02-26T21:39:40.507Z,17.70
2023-02-26T21:42:10.607Z,17.82
2023-02-26T21:44:37.528Z,17.69
2023-02-26T21:47:05.042Z,17.43
2023-02-26T21:49:32.287Z,17.64
2023-02-26T21:52:00.487Z,17.77
2023-02-26T21:54:27.532Z,17.54
2023-02-26T21:56:54.486Z,17.71
2023-02-26T21:59:23.214Z,17.39
2023-02-26T22:01:50.818Z,17.35
2023-02-26T22:04:18.339Z,17.64
2023-02-26T22:06:45.444Z,17.71
2023-02-26T22:09:12.484Z,17.82
2023-02-26T22:11:39.577Z,17.93
2023-02-26T22:14:06.363Z,18.00
2023-02-26T22:16:33.330Z,18.17
2023-02-26T22:19:00.002Z,18.04
2023-02-26T22:21:27.181Z,17.46
2023-02-26T22:23:54.192Z,17.41
2023-02-26T22:26:21.307Z,17.12
2023-02-26T22:28:48.163Z,17.40
2023-02-26T22:31:15.018Z,17.45
2023-02-26T22:33:41.798Z,17.42
2023-02-26T22:36:08.540Z,17.45
2023-02-26T22:38:35.498Z,17.61
2023-02-26T22:41:02.280Z,17.47
2023-02-26T22:43:29.197Z,17.49
2023-02-26T22:45:55.922Z,16.87
2023-02-26T22:48:22.676Z,17.43
2023-02-26T22:50:50.776Z,17.37
2023-02-26T22:53:17.737Z,17.34
2023-02-26T22:55:44.461Z,17.58
2023-02-26T22:58:11.372Z,16.59
2023-02-26T23:00:38.130Z,15.73
2023-02-26T23:03:04.999Z,16.27
2023-02-26T23:05:31.744Z,16.62
2023-02-26T23:07:58.632Z,16.56
2023-02-26T23:10:25.493Z,16.91
2023-02-26T23:12:52.448Z,16.91
2023-02-26T23:15:19.482Z,17.03
2023-02-26T23:17:46.180Z,16.31
2023-02-26T23:20:14.785Z,16.73
2023-02-26T23:22:43.917Z,17.11
2023-02-26T23:25:12.185Z,17.19
2023-02-26T23:27:40.670Z,15.82
2023-02-26T23:30:08.360Z,16.05
2023-02-26T23:32:35.288Z,16.78
2023-02-26T23:35:02.168Z,16.68
2023-02-26T23:37:29.320Z,16.58
2023-02-26T23:39:56.943Z,16.90
2023-02-26T23:42:23.590Z,16.90
2023-02-26T23:44:50.431Z,16.83
2023-02-26T23:47:17.146Z,17.03
2023-02-26T23:49:43.967Z,16.17
2023-02-26T23:52:10.716Z,16.93
2023-02-26T23:54:39.816Z,17.13
2023-02-26T23:57:06.821Z,15.77
2023-02-26T23:59:33.904Z,16.52
